Time;durP1;ratioP1;P1;durP2;ratioP2;P2;SDS_P1;SDS_P2;PMS_P1;PMS_P2;Temp;Humidity;BMP_temperature;BMP_pressure;BME280_temperature;BME280_humidity;BME280_pressure;Samples;Min_cycle;Max_cycle;Signal;HPM_P1;HPM_P2
2024/01/11 00:01:46;;;;;;;24.50;13.40;;;;;;;-6.52;68.52;100706.72;4946123;28;20034;-92
2024/01/11 00:04:12;;;;;;;31.07;14.40;;;;;;;-6.64;68.70;100699.03;4946601;28;20112;-92
2024/01/11 00:06:44;;;;;;;26.07;15.00;;;;;;;-6.67;68.43;100694.06;4962637;28;20054;-94
2024/01/11 00:09:09;;;;;;;;;;;;;;;-6.52;68.17;100711.16;4946764;28;20420;-92
2024/01/11 00:11:35;;;;;;;19.43;11.03;;;;;;;-6.57;68.30;100705.47;4962229;28;19968;-92
2024/01/11 00:14:01;;;;;;;23.17;12.90;;;;;;;-6.50;67.28;100690.91;4947210;28;20031;-93
2024/01/11 00:16:26;;;;;;;19.17;12.63;;;;;;;-6.59;67.89;100687.25;4945427;28;20022;-93
2024/01/11 00:18:52;;;;;;;20.57;13.03;;;;;;;-6.36;67.55;100710.75;4961634;28;20030;-92
2024/01/11 00:21:17;;;;;;;23.80;12.70;;;;;;;-6.42;68.17;100713.84;4945712;28;20100;-92
2024/01/11 00:23:43;;;;;;;23.13;13.07;;;;;;;-6.41;67.08;100692.78;4958510;28;20113;-92
2024/01/11 00:26:09;;;;;;;26.20;12.77;;;;;;;-6.26;67.44;100710.81;4941656;28;20022;-93
2024/01/11 00:28:35;;;;;;;20.00;12.70;;;;;;;-6.37;66.78;100701.19;4960697;28;20453;-92
2024/01/11 00:31:00;;;;;;;20.53;11.20;;;;;;;-6.45;67.09;100690.50;4928281;28;20019;-93
2024/01/11 00:33:26;;;;;;;22.20;12.63;;;;;;;-6.38;67.88;100702.16;4927724;28;20050;-92
2024/01/11 00:35:51;;;;;;;22.10;12.00;;;;;;;-6.33;66.85;100694.75;4927646;28;20026;-93
2024/01/11 00:38:17;;;;;;;20.20;11.03;;;;;;;-6.28;66.81;100695.22;4926342;28;20105;-93
2024/01/11 00:40:43;;;;;;;20.23;11.07;;;;;;;-6.49;66.69;100684.72;4927237;28;20026;-93
2024/01/11 00:43:08;;;;;;;22.93;12.03;;;;;;;-6.51;66.86;100684.00;4927236;28;20034;-92
2024/01/11 00:45:35;;;;;;;22.17;11.50;;;;;;;-6.59;66.81;100695.09;4927036;28;20049;-93
2024/01/11 00:48:00;;;;;;;25.13;11.17;;;;;;;-6.71;66.88;100670.72;4950899;28;20022;-94
2024/01/11 00:50:26;;;;;;;26.43;12.87;;;;;;;-6.46;66.58;100704.59;4950815;28;20505;-93
2024/01/11 00:52:51;;;;;;;27.10;13.27;;;;;;;-6.67;66.84;100667.88;4945908;28;20062;-93
2024/01/11 00:55:17;;;;;;;20.60;11.93;;;;;;;-6.71;67.40;100662.88;4962186;28;20026;-94
2024/01/11 00:57:42;;;;;;;29.30;13.27;;;;;;;-6.55;67.69;100674.75;4961543;28;20026;-94
2024/01/11 01:00:09;;;;;;;21.77;12.77;;;;;;;-6.56;67.56;100667.81;4978944;28;20022;-93
2024/01/11 01:02:35;;;;;;;25.67;12.53;;;;;;;-6.41;66.92;100687.53;4981851;28;20023;-92
2024/01/11 01:05:03;;;;;;;21.67;13.80;;;;;;;-6.59;67.27;100670.72;4966319;28;20480;-91
2024/01/11 01:07:28;;;;;;;24.13;13.43;;;;;;;-6.50;67.09;100662.06;4949461;28;20110;-93
2024/01/11 01:09:54;;;;;;;25.43;13.00;;;;;;;-6.58;67.32;100649.63;4958954;28;20050;-93
2024/01/11 01:12:19;;;;;;;26.73;12.67;;;;;;;-6.35;66.51;100675.69;4969516;28;20022;-93
2024/01/11 01:14:45;;;;;;;23.27;12.10;;;;;;;-6.54;66.72;100651.00;4970668;28;20443;-91
2024/01/11 01:17:11;;;;;;;23.90;12.83;;;;;;;-6.40;66.95;100678.72;4961849;28;20033;-92
2024/01/11 01:19:36;;;;;;;26.30;14.03;;;;;;;-6.54;67.14;100645.78;4930668;28;20027;-92
2024/01/11 01:22:02;;;;;;;24.63;13.43;;;;;;;-6.74;67.75;100623.03;4929313;28;20512;-93
2024/01/11 01:24:27;;;;;;;24.33;13.83;;;;;;;-6.60;67.06;100625.34;4929821;28;20037;-91
2024/01/11 01:26:53;;;;;;;26.53;13.00;;;;;;;-6.48;66.83;100633.97;4929428;28;20050;-93
2024/01/11 01:29:18;;;;;;;23.00;13.30;;;;;;;-6.19;66.98;100649.88;4929168;28;20086;-92
2024/01/11 01:31:44;;;;;;;25.43;13.97;;;;;;;-6.36;66.89;100629.50;4929404;28;20050;-93
2024/01/11 01:34:09;;;;;;;38.17;15.77;;;;;;;-6.59;67.67;100605.22;4929558;28;20034;-92
2024/01/11 01:36:35;;;;;;;33.77;13.30;;;;;;;-6.51;67.10;100595.75;4929348;28;20023;-93
2024/01/11 01:39:01;;;;;;;36.23;15.60;;;;;;;-6.46;67.02;100611.09;4930031;28;20031;-91
2024/01/11 01:41:26;;;;;;;29.03;14.23;;;;;;;-6.40;67.28;100605.34;4929790;28;20038;-93
2024/01/11 01:43:52;;;;;;;42.43;15.37;;;;;;;-6.31;67.10;100611.59;4930268;28;20023;-93
2024/01/11 01:46:21;;;;;;;27.63;14.53;;;;;;;-6.28;67.59;100594.81;4930308;28;20037;-92
2024/01/11 01:48:47;;;;;;;25.57;14.57;;;;;;;-6.31;67.10;100596.72;4930440;28;20695;-93
2024/01/11 01:51:12;;;;;;;39.40;16.07;;;;;;;-6.21;67.40;100607.25;4931277;28;20026;-93
2024/01/11 01:53:38;;;;;;;25.87;14.17;;;;;;;-6.31;67.77;100599.34;4931738;28;20030;-92
2024/01/11 01:56:04;;;;;;;23.93;14.03;;;;;;;-6.33;67.31;100582.91;4930796;28;20097;-92
2024/01/11 01:58:29;;;;;;;29.60;14.37;;;;;;;-6.10;66.80;100607.19;4928987;28;20109;-93
2024/01/11 02:00:55;;;;;;;25.60;13.73;;;;;;;-6.03;66.32;100609.28;4930335;28;20023;-93
2024/01/11 02:03:20;;;;;;;23.83;12.63;;;;;;;-6.14;65.79;100581.38;4929236;28;20033;-93
2024/01/11 02:05:46;;;;;;;34.07;15.43;;;;;;;-6.21;66.17;100567.94;4929706;28;20027;-92
2024/01/11 02:08:15;;;;;;;31.33;15.43;;;;;;;-6.02;66.17;100603.06;4929707;28;20031;-93
2024/01/11 02:10:40;;;;;;;28.50;16.50;;;;;;;-6.14;66.29;100566.47;4931333;28;20029;-93
2024/01/11 02:13:06;;;;;;;34.63;15.83;;;;;;;-6.20;66.44;100572.22;4928729;28;20018;-92
2024/01/11 02:15:31;;;;;;;31.87;15.73;;;;;;;-6.10;66.25;100594.06;4929957;28;20027;-93
2024/01/11 02:17:57;;;;;;;35.50;15.70;;;;;;;-6.40;65.79;100559.97;4929244;28;20519;-93
2024/01/11 02:20:22;;;;;;;34.77;16.63;;;;;;;-6.46;66.48;100563.94;4929777;28;20031;-92
2024/01/11 02:22:52;;;;;;;29.63;14.40;;;;;;;-6.46;66.07;100560.50;4929277;28;20018;-93
2024/01/11 02:25:17;;;;;;;30.73;15.57;;;;;;;-6.54;67.34;100559.31;4929855;28;20121;-92
2024/01/11 02:27:46;;;;;;;35.97;18.07;;;;;;;-6.68;67.02;100551.81;4928347;28;20037;-92
2024/01/11 02:30:15;;;;;;;33.13;17.27;;;;;;;-6.56;66.76;100566.47;4962308;28;20026;-93
2024/01/11 02:32:48;;;;;;;41.40;17.77;;;;;;;-6.62;66.80;100553.94;4929888;28;20077;-92
2024/01/11 02:35:14;;;;;;;39.67;16.97;;;;;;;-6.47;67.32;100582.38;4930388;28;20117;-93
2024/01/11 02:37:40;;;;;;;31.43;16.23;;;;;;;-6.51;67.25;100571.38;4930150;28;20027;-91
2024/01/11 02:40:09;;;;;;;33.13;17.03;;;;;;;-6.76;67.23;100549.81;4928752;28;20046;-93
2024/01/11 02:42:35;;;;;;;37.40;16.80;;;;;;;-6.72;67.76;100559.09;4929476;28;20038;-92
2024/01/11 02:45:04;;;;;;;28.93;15.20;;;;;;;-6.64;66.83;100555.00;4928778;28;20018;-92
2024/01/11 02:47:30;;;;;;;29.67;15.27;;;;;;;-6.59;66.81;100555.44;4929620;28;20023;-93
2024/01/11 02:49:56;;;;;;;26.43;14.07;;;;;;;-6.73;67.62;100544.31;4929340;28;20038;-93
2024/01/11 02:52:22;;;;;;;27.87;13.30;;;;;;;-6.79;67.22;100531.72;4928823;28;20031;-93
2024/01/11 02:54:48;;;;;;;24.03;13.17;;;;;;;-6.71;66.53;100526.69;4927556;28;20089;-93
2024/01/11 02:57:14;;;;;;;25.60;11.87;;;;;;;-6.58;66.63;100531.75;4929750;28;20019;-93
2024/01/11 02:59:43;;;;;;;22.73;13.53;;;;;;;-6.44;66.80;100554.16;4944623;28;20030;-93
2024/01/11 03:02:08;;;;;;;22.47;12.60;;;;;;;-6.43;67.45;100562.84;4929235;28;20174;-94
2024/01/11 03:04:34;;;;;;;24.67;12.87;;;;;;;-6.67;67.43;100543.00;4928712;28;20046;-92
2024/01/11 03:06:59;;;;;;;23.07;12.27;;;;;;;-6.64;67.52;100537.50;4927843;28;20034;-93
2024/01/11 03:09:25;;;;;;;21.30;12.20;;;;;;;-6.67;67.56;100531.69;4928027;28;20042;-93
2024/01/11 03:11:50;;;;;;;23.13;12.90;;;;;;;-6.62;67.32;100537.34;4928821;28;20026;-93
2024/01/11 03:14:16;;;;;;;21.47;11.77;;;;;;;-6.61;67.40;100534.63;4927813;28;20532;-93
2024/01/11 03:16:42;;;;;;;23.77;11.93;;;;;;;-6.55;66.60;100530.66;4928565;28;20023;-91
2024/01/11 03:19:08;;;;;;;19.07;10.70;;;;;;;-6.37;66.39;100549.22;4927383;28;20023;-94
2024/01/11 03:21:33;;;;;;;19.77;10.00;;;;;;;-6.25;64.95;100532.47;4927551;28;20026;-91
2024/01/11 03:24:00;;;;;;;19.80;11.60;;;;;;;-6.25;65.30;100515.91;4943394;28;20027;-92
2024/01/11 03:26:25;;;;;;;23.87;12.30;;;;;;;-6.54;66.10;100501.69;4927206;28;20023;-93
2024/01/11 03:28:51;;;;;;;23.87;12.00;;;;;;;-6.62;66.27;100493.69;4928138;28;20026;-94
2024/01/11 03:31:16;;;;;;;21.50;11.50;;;;;;;-6.62;66.50;100498.91;4927355;28;20151;-93
2024/01/11 03:33:42;;;;;;;21.63;11.67;;;;;;;-6.58;66.69;100499.47;4927008;28;20051;-92
2024/01/11 03:36:11;;;;;;;18.80;10.73;;;;;;;-6.63;66.12;100489.41;4927331;28;20023;-94
2024/01/11 03:38:36;;;;;;;18.97;10.93;;;;;;;-6.51;66.02;100496.22;4927285;28;20039;-92
2024/01/11 03:41:02;;;;;;;25.27;11.90;;;;;;;-6.62;66.03;100491.06;4927853;28;20057;-92
2024/01/11 03:43:28;;;;;;;20.23;12.13;;;;;;;-6.56;66.71;100505.41;4927334;28;20123;-94
2024/01/11 03:45:53;;;;;;;18.80;11.07;;;;;;;-6.55;66.69;100513.16;4926907;28;20034;-92
2024/01/11 03:48:19;;;;;;;21.00;10.97;;;;;;;-6.55;66.72;100507.09;4928432;28;20031;-93
2024/01/11 03:50:44;;;;;;;18.53;10.57;;;;;;;-6.71;65.94;100483.97;4929962;28;20027;-94
2024/01/11 03:53:10;;;;;;;15.60;9.00;;;;;;;-6.43;65.13;100481.63;4968498;28;20480;-94
2024/01/11 03:55:36;;;;;;;19.83;10.23;;;;;;;-6.40;64.71;100474.34;4968351;28;20034;-93
2024/01/11 03:58:01;;;;;;;18.33;10.07;;;;;;;-6.59;65.43;100474.25;4965270;28;20029;-94
2024/01/11 04:00:27;;;;;;;16.30;9.70;;;;;;;-6.54;65.50;100480.75;4964703;28;20026;-93
2024/01/11 04:02:53;;;;;;;14.47;9.07;;;;;;;-6.61;65.47;100452.59;4963755;28;20092;-92
2024/01/11 04:05:18;;;;;;;16.20;9.40;;;;;;;-6.38;64.55;100463.72;4962901;28;20030;-92
2024/01/11 04:07:44;;;;;;;18.67;9.73;;;;;;;-6.31;64.35;100470.94;4962597;28;20022;-92
2024/01/11 04:10:11;;;;;;;18.53;9.50;;;;;;;-6.23;64.80;100480.75;4962176;28;20113;-92
2024/01/11 04:12:37;;;;;;;18.53;8.83;;;;;;;-6.30;64.21;100459.47;4962794;28;20113;-91
2024/01/11 04:15:03;;;;;;;18.23;9.37;;;;;;;-6.18;64.58;100477.75;4957603;28;20023;-93
2024/01/11 04:17:28;;;;;;;16.20;8.03;;;;;;;-6.21;64.32;100472.75;4967347;28;20110;-91
2024/01/11 04:19:54;;;;;;;17.07;8.83;;;;;;;-6.13;64.14;100470.31;4960356;28;20088;-93
2024/01/11 04:22:19;;;;;;;14.93;8.10;;;;;;;-6.15;64.21;100478.28;4952722;28;20504;-90
2024/01/11 04:24:45;;;;;;;15.67;9.10;;;;;;;-6.47;65.06;100454.03;4952250;28;20026;-92
2024/01/11 04:27:11;;;;;;;18.50;10.30;;;;;;;-6.55;64.51;100458.13;4974582;28;20480;-94
2024/01/11 04:29:37;;;;;;;20.27;10.57;;;;;;;-6.71;65.82;100461.22;4969159;28;20038;-93
2024/01/11 04:32:03;;;;;;;17.93;11.07;;;;;;;-6.52;65.57;100475.38;4949567;28;20109;-94
2024/01/11 04:34:28;;;;;;;25.90;11.57;;;;;;;-6.54;65.80;100480.75;4957367;28;20018;-94
2024/01/11 04:36:54;;;;;;;19.60;11.30;;;;;;;-6.76;65.99;100452.13;4957986;28;20022;-92
2024/01/11 04:39:19;;;;;;;20.90;11.80;;;;;;;-6.82;65.50;100437.75;4956391;28;20511;-91
2024/01/11 04:41:45;;;;;;;23.40;12.37;;;;;;;-6.68;65.77;100454.91;4974768;28;20034;-93
2024/01/11 04:44:10;;;;;;;25.07;10.87;;;;;;;-6.70;65.79;100456.84;4950432;28;20523;-94
2024/01/11 04:46:36;;;;;;;25.67;12.47;;;;;;;-6.85;65.79;100458.13;4938297;28;20089;-91
2024/01/11 04:49:02;;;;;;;24.67;12.13;;;;;;;-6.78;65.55;100469.75;4967957;28;20100;-93
2024/01/11 04:51:27;;;;;;;32.47;15.27;;;;;;;-6.91;66.00;100464.69;4965703;28;20032;-91
2024/01/11 04:53:53;;;;;;;31.83;13.73;;;;;;;-6.82;66.18;100463.94;4982746;28;20037;-94
2024/01/11 04:56:18;;;;;;;32.57;14.23;;;;;;;-6.96;65.95;100448.56;4961416;28;20026;-91
2024/01/11 04:58:44;;;;;;;29.17;12.90;;;;;;;-6.93;66.56;100440.41;4978516;28;20026;-92
2024/01/11 05:01:17;;;;;;;26.23;13.57;;;;;;;-6.87;66.34;100432.06;4938359;28;20027;-92
2024/01/11 05:03:45;;;;;;;22.70;10.77;;;;;;;-6.82;65.91;100418.59;4950361;28;20041;-93
2024/01/11 05:06:21;;;;;;;39.37;14.60;;;;;;;-6.71;66.66;100440.28;4969843;28;20034;-92
2024/01/11 05:08:49;;;;;;;33.00;15.90;;;;;;;-6.66;66.57;100455.63;4967256;28;20115;-92
2024/01/11 05:11:24;;;;;;;29.40;14.57;;;;;;;-6.76;66.32;100423.31;4946643;28;20037;-95
2024/01/11 05:13:50;;;;;;;33.53;15.43;;;;;;;-6.66;66.00;100445.16;4966827;28;20021;-94
2024/01/11 05:16:23;;;;;;;39.83;16.43;;;;;;;-6.64;66.15;100445.00;4951073;28;20036;-95
2024/01/11 05:18:56;;;;;;;51.50;22.07;;;;;;;-6.60;65.62;100442.00;4968338;28;20023;-94
2024/01/11 05:21:25;;;;;;;35.20;17.03;;;;;;;-6.66;65.04;100413.72;4963874;28;20049;-95
2024/01/11 05:23:52;;;;;;;29.00;14.90;;;;;;;-6.68;65.74;100430.50;4977483;28;20023;-93
2024/01/11 05:26:18;;;;;;;26.27;17.13;;;;;;;-6.67;66.17;100432.16;4962924;28;20101;-92
2024/01/11 05:28:44;;;;;;;31.03;14.37;;;;;;;-6.83;65.81;100425.59;4953994;28;20034;-94
2024/01/11 05:31:10;;;;;;;31.27;14.93;;;;;;;-6.78;65.89;100427.84;4969388;28;20062;-95
2024/01/11 05:33:36;;;;;;;23.43;14.10;;;;;;;-6.90;65.98;100411.38;4941436;28;20065;-95
2024/01/11 05:36:07;;;;;;;20.50;12.60;;;;;;;-6.77;65.31;100419.03;4978315;28;20120;-94
2024/01/11 05:38:32;;;;;;;25.17;14.07;;;;;;;-6.68;65.16;100414.78;5001279;28;20090;-94
2024/01/11 05:41:08;;;;;;;34.47;14.03;;;;;;;-6.55;66.32;100415.41;4979139;28;20042;-95
2024/01/11 05:43:36;;;;;;;25.37;11.70;;;;;;;-6.57;65.23;100399.00;4957887;28;20106;-93
2024/01/11 05:46:02;;;;;;;20.57;13.07;;;;;;;-6.51;64.80;100393.22;4948712;28;20027;-92
2024/01/11 05:48:27;;;;;;;25.00;14.87;;;;;;;-6.53;64.76;100401.22;4934088;28;20038;-93
2024/01/11 05:50:55;;;;;;;29.13;14.13;;;;;;;-6.57;65.37;100393.75;4935256;28;20023;-94
2024/01/11 05:53:21;;;;;;;29.10;15.43;;;;;;;-6.41;66.16;100409.81;4935670;28;20130;-94
2024/01/11 05:55:56;;;;;;;38.10;19.63;;;;;;;-6.44;65.75;100404.00;4936928;28;20026;-93
2024/01/11 06:01:46;;;;;;;28.20;15.02;;;;;;;-6.45;65.52;100395.31;4983815;28;20045;-93
2024/01/11 06:04:12;;;;;;;23.90;13.57;;;;;;;-6.59;65.97;100395.69;4932508;28;20026;-92
2024/01/11 06:06:47;;;;;;;33.40;17.20;;;;;;;-6.50;65.08;100390.44;4932369;28;20053;-94
2024/01/11 06:09:21;;;;;;;28.07;14.67;;;;;;;-6.45;64.95;100390.06;4940921;28;20046;-94
2024/01/11 06:11:50;;;;;;;28.00;14.30;;;;;;;-6.36;65.56;100404.97;4935708;28;20027;-94
2024/01/11 06:14:36;;;;;;;26.67;14.87;;;;;;;-6.36;65.13;100407.59;4933349;28;20493;-93
2024/01/11 06:17:16;;;;;;;27.50;14.83;;;;;;;-6.23;64.18;100396.88;4948056;28;20054;-94
2024/01/11 06:20:12;;;;;;;29.37;14.00;;;;;;;-6.73;66.08;100360.19;4969568;28;20034;-95
2024/01/11 06:23:19;;;;;;;;;;;;;;;;;;;;;
2024/01/11 06:26:24;;;;;;;30.10;15.37;;;;;;;-7.02;66.91;100352.22;4991084;28;20094;-95
2024/01/11 06:29:17;;;;;;;29.20;14.10;;;;;;;-7.20;66.82;100360.69;4981140;28;20071;-96
2024/01/11 06:32:37;;;;;;;;;;;;;;;;;;;;;
2024/01/11 06:34:52;;;;;;;29.60;15.83;;;;;;;-7.37;68.65;100356.00;4963610;28;20051;-94
2024/01/11 06:37:42;;;;;;;21.13;12.30;;;;;;;-7.36;67.86;100355.91;4935723;28;20039;-95
2024/01/11 06:40:19;;;;;;;23.73;12.40;;;;;;;-7.46;68.17;100341.94;4934520;28;20525;-93
2024/01/11 06:42:45;;;;;;;24.50;12.33;;;;;;;-7.67;68.46;100341.09;4949214;28;20055;-94
2024/01/11 06:45:16;;;;;;;22.23;12.10;;;;;;;-7.35;68.53;100349.69;4924770;29;20045;-94
2024/01/11 06:47:47;;;;;;;18.27;10.75;;;;;;;-7.25;68.98;100362.84;4913564;28;20023;-94
2024/01/11 06:50:13;;;;;;;30.70;14.20;;;;;;;-7.02;68.27;100352.22;4938907;28;20046;-93
2024/01/11 06:52:54;;;;;;;32.67;16.67;;;;;;;-7.04;67.98;100327.97;4938583;28;20062;-93
2024/01/11 06:55:22;;;;;;;27.23;14.48;;;;;;;-6.76;66.70;100337.72;4922683;28;20096;-87
2024/01/11 06:57:48;;;;;;;30.83;15.47;;;;;;;-6.42;67.08;100360.97;4927840;28;20037;-91
2024/01/11 07:00:14;;;;;;;31.07;13.23;;;;;;;-6.33;66.65;100356.72;4941991;28;20125;-92
2024/01/11 07:02:42;;;;;;;32.50;14.30;;;;;;;-6.39;66.27;100325.81;4965661;28;20112;-92
2024/01/11 07:05:08;;;;;;;43.23;20.33;;;;;;;-6.24;65.48;100337.56;4948146;28;20034;-92
2024/01/11 07:07:33;;;;;;;18.03;10.27;;;;;;;-6.05;65.89;100344.63;4962003;28;20102;-92
2024/01/11 07:10:51;;;;;;;25.83;10.40;;;;;;;-5.84;64.09;100325.28;4945636;28;20044;-93
2024/01/11 07:13:16;;;;;;;37.90;26.60;;;;;;;-5.56;64.77;100344.56;4989313;28;20034;-93
2024/01/11 07:15:44;;;;;;;18.88;10.60;;;;;;;-5.54;63.92;100325.13;4950309;28;20027;-91
2024/01/11 07:21:52;;;;;;;15.38;7.97;;;;;;;-5.19;61.70;100314.94;4935699;29;20027;-96
2024/01/11 07:24:20;;;;;;;13.43;8.40;;;;;;;-5.13;61.50;100314.38;4906827;29;20050;-93
2024/01/11 07:26:47;;;;;;;14.15;8.43;;;;;;;-5.17;61.58;100326.13;4923475;29;20050;-92
2024/01/11 07:29:14;;;;;;;17.17;7.65;;;;;;;-5.21;61.25;100309.81;4931824;28;20520;-91
2024/01/11 07:31:43;;;;;;;13.45;8.35;;;;;;;-5.16;61.20;100326.00;4907418;29;20042;-91
2024/01/11 07:34:11;;;;;;;14.50;8.80;;;;;;;-5.13;61.49;100319.63;4894905;29;20541;-93
2024/01/11 07:36:36;;;;;;;21.23;10.10;;;;;;;-4.93;61.58;100334.34;4888039;29;20546;-92
2024/01/11 07:39:02;;;;;;;18.67;12.68;;;;;;;-5.04;62.24;100310.91;4905134;29;20044;-93
2024/01/11 07:41:28;;;;;;;18.88;10.68;;;;;;;-4.87;61.50;100339.00;4900205;29;20078;-92
2024/01/11 07:43:58;;;;;;;19.73;11.50;;;;;;;-4.68;60.98;100342.53;4887965;29;20141;-93
2024/01/11 07:46:23;;;;;;;21.37;10.90;;;;;;;-4.71;61.84;100340.19;4906905;29;20063;-94
2024/01/11 07:48:49;;;;;;;27.08;12.57;;;;;;;-4.65;60.36;100312.50;4903334;29;20061;-94
2024/01/11 07:51:15;;;;;;;21.48;11.52;;;;;;;-4.48;60.37;100311.72;4896320;29;20016;-90
2024/01/11 07:53:58;;;;;;;21.88;12.52;;;;;;;-4.32;61.06;100319.75;4904832;29;20111;-92
2024/01/11 07:57:14;;;;;;;19.65;11.70;;;;;;;-4.17;60.66;100306.09;4938902;28;20105;-94
2024/01/11 07:59:41;;;;;;;26.92;13.40;;;;;;;-4.00;61.25;100326.34;4953066;29;20054;-94
2024/01/11 08:02:09;;;;;;;24.50;12.70;;;;;;;-3.99;60.54;100306.13;4933257;28;20053;-92
2024/01/11 08:04:34;;;;;;;24.83;13.23;;;;;;;-3.96;60.15;100293.50;4929770;29;20032;-93
2024/01/11 08:07:01;;;;;;;18.98;12.30;;;;;;;-3.70;59.26;100300.59;4921220;29;20066;-92
2024/01/11 08:09:30;;;;;;;27.00;13.38;;;;;;;-3.58;58.94;100306.44;4905768;29;20031;-93
2024/01/11 08:11:56;;;;;;;29.95;15.30;;;;;;;-3.60;58.72;100303.16;4932922;29;20499;-94
2024/01/11 08:14:22;;;;;;;26.98;14.75;;;;;;;-3.88;59.30;100285.69;4928465;29;20035;-94
2024/01/11 08:17:09;;;;;;;29.08;12.85;;;;;;;-3.70;58.73;100314.56;4924577;29;20035;-92
2024/01/11 08:19:35;;;;;;;21.35;11.60;;;;;;;-3.33;56.91;100315.34;4946516;29;20054;-92
2024/01/11 08:22:00;;;;;;;24.27;13.75;;;;;;;-3.20;57.52;100301.75;4929360;29;20038;-93
2024/01/11 08:24:26;;;;;;;24.70;11.43;;;;;;;-2.91;56.44;100309.31;4924408;29;20035;-92
2024/01/11 08:26:59;;;;;;;35.10;21.92;;;;;;;-2.91;56.55;100289.03;4928476;29;20039;-94
2024/01/11 08:29:27;;;;;;;20.55;11.00;;;;;;;-2.67;56.19;100290.16;4935216;29;20039;-92
2024/01/11 08:31:54;;;;;;;17.50;9.13;;;;;;;-2.53;55.09;100312.41;4913073;29;20051;-91
2024/01/11 08:34:20;;;;;;;15.55;8.95;;;;;;;-2.47;53.75;100291.53;4922395;29;20027;-93
2024/01/11 08:36:52;;;;;;;21.88;11.13;;;;;;;-2.30;53.20;100302.94;4924660;29;20039;-91
2024/01/11 08:39:18;;;;;;;15.98;10.02;;;;;;;-2.14;53.84;100311.84;4930127;29;20047;-92
2024/01/11 08:41:44;;;;;;;29.35;13.68;;;;;;;-2.19;53.74;100293.06;4930648;29;20532;-93
2024/01/11 08:44:19;;;;;;;29.90;12.80;;;;;;;-2.16;54.00;100275.06;4931922;29;20039;-92
2024/01/11 08:46:44;;;;;;;22.45;14.75;;;;;;;-1.88;53.52;100286.16;4947500;29;20027;-93
2024/01/11 08:49:17;;;;;;;112.30;52.10;;;;;;;-1.77;53.92;100282.34;4914307;29;20034;-92
2024/01/11 08:51:51;;;;;;;40.42;24.48;;;;;;;-1.73;53.73;100267.84;4929505;28;20070;-92
2024/01/11 08:54:20;;;;;;;34.83;18.50;;;;;;;-1.66;53.71;100254.78;4944430;28;20130;-89
2024/01/11 09:00:08;;;;;;;25.48;14.80;;;;;;;-1.44;52.11;100242.72;4963630;29;20042;-92
2024/01/11 09:02:37;;;;;;;29.80;17.15;;;;;;;-1.41;52.69;100239.75;4931738;29;20027;-94
2024/01/11 09:05:07;;;;;;;30.90;17.80;;;;;;;-1.40;51.60;100232.63;4928549;29;20401;-92
2024/01/11 09:07:34;;;;;;;33.40;18.08;;;;;;;-1.16;51.33;100258.16;4902496;28;20026;-93
2024/01/11 09:10:42;;;;;;;;;;;;;;;;;;;;;
2024/01/11 09:13:08;;;;;;;31.52;18.20;;;;;;;-1.06;51.86;100246.41;4963633;28;20122;-94
2024/01/11 09:15:33;;;;;;;44.30;24.63;;;;;;;-1.06;53.12;100219.13;4935624;28;20471;-88
2024/01/11 09:18:33;;;;;;;45.30;24.05;;;;;;;-0.94;52.34;100219.59;4929285;29;20035;-95
2024/01/11 09:20:58;;;;;;;48.25;25.98;;;;;;;-0.87;52.77;100215.25;4930871;28;20126;-90
2024/01/11 09:23:24;;;;;;;50.70;24.75;;;;;;;-0.89;52.10;100210.16;4924823;29;20055;-90
2024/01/11 09:25:49;;;;;;;61.70;29.15;;;;;;;-0.95;52.21;100188.88;4892590;29;20222;-91
2024/01/11 09:28:20;;;;;;;46.55;24.15;;;;;;;-0.77;50.93;100183.31;4914429;29;20031;-95
2024/01/11 09:30:59;;;;;;;36.03;24.30;;;;;;;-0.75;52.98;100211.22;4917586;29;20422;-94
2024/01/11 09:33:27;;;;;;;44.95;22.60;;;;;;;-0.73;51.56;100196.00;4954790;28;20059;-95
2024/01/11 09:36:15;;;;;;;37.15;21.52;;;;;;;-0.79;50.77;100162.31;4933594;28;20034;-95
2024/01/11 09:38:53;;;;;;;;;;;;;;;;;;;;;
2024/01/11 09:41:29;;;;;;;42.97;24.05;;;;;;;-0.61;51.54;100178.72;4948610;28;20114;-94
2024/01/11 09:43:59;;;;;;;42.88;25.02;;;;;;;-0.56;50.94;100165.00;4929505;28;20031;-93
2024/01/11 09:46:33;;;;;;;57.25;34.05;;;;;;;-0.39;50.81;100181.56;4944758;28;20035;-94
2024/01/11 09:48:59;;;;;;;46.75;26.55;;;;;;;-0.58;50.86;100145.84;4935758;28;20038;-92
2024/01/11 09:51:25;;;;;;;46.40;25.42;;;;;;;-0.32;50.54;100153.38;4936401;28;20478;-91
2024/01/11 09:53:51;;;;;;;46.78;26.70;;;;;;;-0.34;50.96;100152.75;4935634;28;20031;-90
2024/01/11 09:56:18;;;;;;;42.75;24.58;;;;;;;-0.24;50.76;100137.44;4945831;28;20048;-92
2024/01/11 09:58:48;;;;;;;45.60;25.08;;;;;;;-0.06;50.66;100138.97;4937466;28;20410;-92
2024/01/11 10:01:14;;;;;;;55.22;28.98;;;;;;;0.03;50.56;100153.75;4927052;28;20030;-91
2024/01/11 10:03:43;;;;;;;54.08;30.05;;;;;;;0.06;51.36;100134.03;4928356;29;20481;-94
2024/01/11 10:06:09;;;;;;;47.80;25.42;;;;;;;0.06;49.13;100129.53;4933952;28;20038;-91
2024/01/11 10:08:37;;;;;;;45.83;28.15;;;;;;;0.03;49.35;100119.34;4930243;28;20117;-93
2024/01/11 10:11:05;;;;;;;41.42;23.75;;;;;;;0.15;48.63;100114.41;4929558;28;20035;-93
2024/01/11 10:13:32;;;;;;;47.58;27.27;;;;;;;0.14;48.81;100104.81;4929368;28;20030;-93
2024/01/11 10:16:18;;;;;;;44.15;26.02;;;;;;;0.30;48.82;100109.13;4931467;28;20583;-93
2024/01/11 10:18:46;;;;;;;47.92;25.83;;;;;;;0.25;49.99;100106.19;4930581;28;20031;-93
2024/01/11 10:21:13;;;;;;;51.20;29.42;;;;;;;0.03;50.96;100087.56;4950734;28;20049;-91
2024/01/11 10:24:10;;;;;;;44.33;27.67;;;;;;;0.33;48.71;100122.81;4948729;28;20039;-94
2024/01/11 10:26:36;;;;;;;46.28;25.42;;;;;;;0.35;49.73;100096.13;4947404;28;20050;-94
2024/01/11 10:47:44;;;;;;;45.90;26.80;;;;;;;0.89;47.64;100066.59;4949835;28;20146;-94
2024/01/11 10:50:10;;;;;;;46.65;25.42;;;;;;;1.16;47.65;100073.00;4875718;29;20051;-93
2024/01/11 10:52:37;;;;;;;43.80;26.77;;;;;;;1.09;48.06;100058.84;4904218;29;20043;-94
2024/01/11 10:55:25;;;;;;;49.13;27.05;;;;;;;1.00;48.69;100067.97;4879869;29;20510;-96
2024/01/11 10:57:51;;;;;;;34.92;23.70;;;;;;;1.04;47.81;100031.25;4903774;29;20402;-94
2024/01/11 11:00:20;;;;;;;38.55;21.27;;;;;;;1.18;47.00;100036.50;4900941;29;20070;-93
2024/01/11 11:02:52;;;;;;;48.15;23.05;;;;;;;1.19;46.28;100019.56;4907402;29;20039;-91
2024/01/11 11:05:48;;;;;;;;;;;;;;;;;;;;;
2024/01/11 11:08:14;;;;;;;29.88;17.00;;;;;;;1.44;46.56;100016.50;4913893;29;20119;-94
2024/01/11 11:10:41;;;;;;;38.25;18.98;;;;;;;1.40;46.36;100008.09;4892110;29;20047;-94
2024/01/11 11:13:09;;;;;;;31.13;17.83;;;;;;;1.52;45.58;100013.72;4876552;29;20463;-93
2024/01/11 11:15:49;;;;;;;30.02;17.55;;;;;;;1.48;46.27;100016.94;4891076;29;20100;-95
2024/01/11 11:18:18;;;;;;;36.70;19.35;;;;;;;1.51;46.52;100012.06;4886025;29;20064;-92
2024/01/11 11:20:47;;;;;;;34.25;20.77;;;;;;;1.39;46.22;99968.50;4894985;29;20039;-92
2024/01/11 11:23:19;;;;;;;35.65;19.83;;;;;;;1.50;46.78;99989.19;4914556;29;20506;-92
2024/01/11 11:26:48;;;;;;;51.63;23.50;;;;;;;1.37;46.92;99981.97;4906457;29;20042;-95
2024/01/11 11:29:07;;;;;;;;;;;;;;;;;;;;;
2024/01/11 11:31:45;;;;;;;34.72;20.48;;;;;;;1.59;47.72;99980.06;4930994;29;20083;-94
2024/01/11 11:34:17;;;;;;;31.17;18.42;;;;;;;1.73;46.54;99973.00;4913484;29;20042;-93
2024/01/11 11:37:04;;;;;;;;;;;;;;;;;;;;;
2024/01/11 11:42:54;;;;;;;30.92;18.98;;;;;;;1.88;47.02;99948.16;4931127;29;20043;-96
2024/01/11 11:52:47;;;;;;;35.08;18.25;;;;;;;2.29;45.59;99948.13;4856739;29;20052;-93
2024/01/11 11:55:36;;;;;;;33.47;18.60;;;;;;;2.23;45.28;99914.38;4861792;29;20061;-92
2024/01/11 11:58:05;;;;;;;29.75;17.02;;;;;;;2.26;45.17;99918.47;4852347;29;20146;-94
2024/01/11 12:17:48;;;;;;;35.05;18.38;;;;;;;2.46;46.80;99898.06;4703729;30;20064;-93
2024/01/11 12:24:18;;;;;;;30.27;15.23;;;;;;;2.21;46.85;99872.06;4757943;30;20059;-94
2024/01/11 12:37:12;;;;;;;22.33;13.13;;;;;;;2.02;47.74;99865.69;4780072;30;20164;-93
2024/01/11 12:40:40;;;;;;;20.85;10.48;;;;;;;1.94;47.30;99854.44;4815818;29;20029;-94
2024/01/11 12:43:25;;;;;;;25.13;10.43;;;;;;;2.02;46.30;99833.00;4884150;29;20126;-94
2024/01/11 12:45:57;;;;;;;10.65;5.95;;;;;;;2.05;45.70;99831.78;4893254;29;20067;-94